sensor_id;sensor_type;location;lat;lon;timestamp;temperature;humidity
57566;DHT22;63999;43.882;-0.310;2023-04-02T00:00:34;10.80;73.00
57566;DHT22;63999;43.882;-0.310;2023-04-02T00:03:04;10.80;73.10
57566;DHT22;63999;43.882;-0.310;2023-04-02T00:05:44;10.80;72.60
57566;DHT22;63999;43.882;-0.310;2023-04-02T00:08:27;10.90;73.10
57566;DHT22;63999;43.882;-0.310;2023-04-02T00:10:59;10.90;72.20
57566;DHT22;63999;43.882;-0.310;2023-04-02T00:13:32;10.80;72.60
57566;DHT22;63999;43.882;-0.310;2023-04-02T00:16:00;10.90;72.70
57566;DHT22;63999;43.882;-0.310;2023-04-02T00:18:27;10.90;73.20
57566;DHT22;63999;43.882;-0.310;2023-04-02T00:21:33;11.00;72.20
57566;DHT22;63999;43.882;-0.310;2023-04-02T00:24:01;11.00;72.40
57566;DHT22;63999;43.882;-0.310;2023-04-02T00:26:37;10.90;72.70
57566;DHT22;63999;43.882;-0.310;2023-04-02T00:29:04;10.80;73.00
57566;DHT22;63999;43.882;-0.310;2023-04-02T00:31:32;10.80;73.00
57566;DHT22;63999;43.882;-0.310;2023-04-02T00:34:01;10.80;73.20
57566;DHT22;63999;43.882;-0.310;2023-04-02T00:36:30;10.80;73.30
57566;DHT22;63999;43.882;-0.310;2023-04-02T00:39:01;10.80;72.40
57566;DHT22;63999;43.882;-0.310;2023-04-02T00:41:30;10.80;72.70
57566;DHT22;63999;43.882;-0.310;2023-04-02T00:43:57;10.70;72.90
57566;DHT22;63999;43.882;-0.310;2023-04-02T00:46:32;10.70;73.50
57566;DHT22;63999;43.882;-0.310;2023-04-02T00:49:26;10.70;72.50
57566;DHT22;63999;43.882;-0.310;2023-04-02T00:52:09;10.70;72.50
57566;DHT22;63999;43.882;-0.310;2023-04-02T00:54:44;10.60;73.00
57566;DHT22;63999;43.882;-0.310;2023-04-02T00:57:18;10.70;72.90
57566;DHT22;63999;43.882;-0.310;2023-04-02T01:02:36;10.80;72.40
57566;DHT22;63999;43.882;-0.310;2023-04-02T01:08:04;10.50;72.60
57566;DHT22;63999;43.882;-0.310;2023-04-02T01:10:39;10.50;72.90
57566;DHT22;63999;43.882;-0.310;2023-04-02T01:16:03;10.30;72.70
57566;DHT22;63999;43.882;-0.310;2023-04-02T01:31:32;10.10;73.10
57566;DHT22;63999;43.882;-0.310;2023-04-02T01:33:59;10.00;73.10
57566;DHT22;63999;43.882;-0.310;2023-04-02T01:36:31;10.00;73.30
57566;DHT22;63999;43.882;-0.310;2023-04-02T01:41:38;10.10;73.30
57566;DHT22;63999;43.882;-0.310;2023-04-02T01:44:08;10.10;73.00
57566;DHT22;63999;43.882;-0.310;2023-04-02T01:46:40;10.00;73.00
57566;DHT22;63999;43.882;-0.310;2023-04-02T01:49:14;10.00;73.30
57566;DHT22;63999;43.882;-0.310;2023-04-02T01:51:45;10.00;73.30
57566;DHT22;63999;43.882;-0.310;2023-04-02T01:54:13;10.00;73.20
57566;DHT22;63999;43.882;-0.310;2023-04-02T01:56:40;10.10;72.80
57566;DHT22;63999;43.882;-0.310;2023-04-02T01:59:08;10.00;72.70
57566;DHT22;63999;43.882;-0.310;2023-04-02T02:01:42;9.90;72.70
57566;DHT22;63999;43.882;-0.310;2023-04-02T02:04:11;9.80;72.80
57566;DHT22;63999;43.882;-0.310;2023-04-02T02:06:42;9.80;72.90
57566;DHT22;63999;43.882;-0.310;2023-04-02T02:09:14;9.80;73.00
57566;DHT22;63999;43.882;-0.310;2023-04-02T02:11:42;9.80;72.90
57566;DHT22;63999;43.882;-0.310;2023-04-02T02:14:16;9.90;73.70
57566;DHT22;63999;43.882;-0.310;2023-04-02T02:16:42;10.00;72.80
57566;DHT22;63999;43.882;-0.310;2023-04-02T02:19:25;10.00;72.90
57566;DHT22;63999;43.882;-0.310;2023-04-02T02:22:26;10.00;73.00
57566;DHT22;63999;43.882;-0.310;2023-04-02T02:24:57;10.00;73.00
57566;DHT22;63999;43.882;-0.310;2023-04-02T02:30:10;10.00;73.30
57566;DHT22;63999;43.882;-0.310;2023-04-02T02:32:44;9.90;73.30
57566;DHT22;63999;43.882;-0.310;2023-04-02T02:35:17;9.80;73.40
57566;DHT22;63999;43.882;-0.310;2023-04-02T02:37:55;9.80;73.50
57566;DHT22;63999;43.882;-0.310;2023-04-02T02:40:34;9.80;73.80
57566;DHT22;63999;43.882;-0.310;2023-04-02T02:43:03;9.70;73.70
57566;DHT22;63999;43.882;-0.310;2023-04-02T02:45:36;9.70;73.40
57566;DHT22;63999;43.882;-0.310;2023-04-02T02:48:09;9.70;73.20
57566;DHT22;63999;43.882;-0.310;2023-04-02T02:50:36;9.70;73.00
57566;DHT22;63999;43.882;-0.310;2023-04-02T02:53:09;9.70;73.70
57566;DHT22;63999;43.882;-0.310;2023-04-02T02:55:39;9.60;74.00
57566;DHT22;63999;43.882;-0.310;2023-04-02T02:58:14;9.60;73.80
57566;DHT22;63999;43.882;-0.310;2023-04-02T03:00:42;9.60;73.90
57566;DHT22;63999;43.882;-0.310;2023-04-02T03:03:10;9.60;73.90
57566;DHT22;63999;43.882;-0.310;2023-04-02T03:05:38;9.60;73.90
57566;DHT22;63999;43.882;-0.310;2023-04-02T03:08:08;9.60;73.80
57566;DHT22;63999;43.882;-0.310;2023-04-02T03:13:21;9.60;73.80
57566;DHT22;63999;43.882;-0.310;2023-04-02T03:24:36;9.50;73.80
57566;DHT22;63999;43.882;-0.310;2023-04-02T03:27:14;9.50;73.60
57566;DHT22;63999;43.882;-0.310;2023-04-02T03:29:46;9.50;73.60
57566;DHT22;63999;43.882;-0.310;2023-04-02T03:32:20;9.60;73.40
57566;DHT22;63999;43.882;-0.310;2023-04-02T03:34:52;9.60;73.50
57566;DHT22;63999;43.882;-0.310;2023-04-02T03:38:03;9.60;73.60
57566;DHT22;63999;43.882;-0.310;2023-04-02T03:40:34;9.50;73.50
57566;DHT22;63999;43.882;-0.310;2023-04-02T03:43:11;9.50;73.70
57566;DHT22;63999;43.882;-0.310;2023-04-02T03:45:42;9.40;73.60
57566;DHT22;63999;43.882;-0.310;2023-04-02T03:51:44;9.40;73.60
57566;DHT22;63999;43.882;-0.310;2023-04-02T03:53:42;9.40;73.60
57566;DHT22;63999;43.882;-0.310;2023-04-02T03:56:14;9.40;73.50
57566;DHT22;63999;43.882;-0.310;2023-04-02T03:58:46;9.40;73.70
57566;DHT22;63999;43.882;-0.310;2023-04-02T04:03:53;9.30;73.30
57566;DHT22;63999;43.882;-0.310;2023-04-02T04:06:32;9.20;73.30
57566;DHT22;63999;43.882;-0.310;2023-04-02T04:14:42;9.40;73.20
57566;DHT22;63999;43.882;-0.310;2023-04-02T04:20:35;9.40;73.90
57566;DHT22;63999;43.882;-0.310;2023-04-02T04:26:28;9.50;73.20
57566;DHT22;63999;43.882;-0.310;2023-04-02T04:32:13;9.50;73.50
57566;DHT22;63999;43.882;-0.310;2023-04-02T04:34:46;9.50;73.20
57566;DHT22;63999;43.882;-0.310;2023-04-02T04:37:24;9.50;73.00
57566;DHT22;63999;43.882;-0.310;2023-04-02T04:40:00;9.40;73.20
57566;DHT22;63999;43.882;-0.310;2023-04-02T04:42:32;9.40;73.20
57566;DHT22;63999;43.882;-0.310;2023-04-02T04:50:58;9.60;73.00
57566;DHT22;63999;43.882;-0.310;2023-04-02T04:53:27;9.50;73.20
57566;DHT22;63999;43.882;-0.310;2023-04-02T04:55:56;9.40;73.30
57566;DHT22;63999;43.882;-0.310;2023-04-02T05:03:53;9.40;74.00
57566;DHT22;63999;43.882;-0.310;2023-04-02T05:06:52;9.40;73.50
57566;DHT22;63999;43.882;-0.310;2023-04-02T05:09:28;9.40;73.30
57566;DHT22;63999;43.882;-0.310;2023-04-02T05:12:15;9.40;74.00
57566;DHT22;63999;43.882;-0.310;2023-04-02T05:15:03;9.40;74.30
57566;DHT22;63999;43.882;-0.310;2023-04-02T05:20:45;9.40;74.50
57566;DHT22;63999;43.882;-0.310;2023-04-02T05:24:02;9.40;74.00
57566;DHT22;63999;43.882;-0.310;2023-04-02T05:26:13;9.40;74.40
57566;DHT22;63999;43.882;-0.310;2023-04-02T05:28:51;9.40;74.20
57566;DHT22;63999;43.882;-0.310;2023-04-02T05:31:25;9.50;74.20
57566;DHT22;63999;43.882;-0.310;2023-04-02T05:33:53;9.70;75.00
57566;DHT22;63999;43.882;-0.310;2023-04-02T05:36:27;10.00;73.90
57566;DHT22;63999;43.882;-0.310;2023-04-02T05:38:56;10.00;74.10
57566;DHT22;63999;43.882;-0.310;2023-04-02T05:46:36;9.90;73.90
57566;DHT22;63999;43.882;-0.310;2023-04-02T05:49:10;10.00;74.50
57566;DHT22;63999;43.882;-0.310;2023-04-02T05:51:44;10.20;74.80
57566;DHT22;63999;43.882;-0.310;2023-04-02T05:54:21;10.20;73.70
57566;DHT22;63999;43.882;-0.310;2023-04-02T05:56:52;10.20;74.70
57566;DHT22;63999;43.882;-0.310;2023-04-02T05:59:30;10.30;74.50
57566;DHT22;63999;43.882;-0.310;2023-04-02T06:02:21;10.20;73.90
57566;DHT22;63999;43.882;-0.310;2023-04-02T06:04:56;10.10;75.00
57566;DHT22;63999;43.882;-0.310;2023-04-02T06:08:02;10.20;74.50
57566;DHT22;63999;43.882;-0.310;2023-04-02T06:10:36;10.20;74.40
57566;DHT22;63999;43.882;-0.310;2023-04-02T06:13:07;10.30;74.70
57566;DHT22;63999;43.882;-0.310;2023-04-02T06:15:37;10.20;75.40
57566;DHT22;63999;43.882;-0.310;2023-04-02T06:20:44;10.70;74.80
57566;DHT22;63999;43.882;-0.310;2023-04-02T06:34:01;10.70;74.00
57566;DHT22;63999;43.882;-0.310;2023-04-02T06:36:28;10.70;75.30
57566;DHT22;63999;43.882;-0.310;2023-04-02T06:38:58;10.70;74.70
57566;DHT22;63999;43.882;-0.310;2023-04-02T06:41:27;10.70;74.50
57566;DHT22;63999;43.882;-0.310;2023-04-02T06:46:31;10.60;75.40
57566;DHT22;63999;43.882;-0.310;2023-04-02T06:49:13;10.70;75.10
57566;DHT22;63999;43.882;-0.310;2023-04-02T06:51:41;10.80;74.80
57566;DHT22;63999;43.882;-0.310;2023-04-02T06:54:18;10.80;75.30
57566;DHT22;63999;43.882;-0.310;2023-04-02T06:56:49;10.80;74.80
57566;DHT22;63999;43.882;-0.310;2023-04-02T06:59:17;11.00;75.70
57566;DHT22;63999;43.882;-0.310;2023-04-02T07:04:32;11.20;74.90
57566;DHT22;63999;43.882;-0.310;2023-04-02T07:06:58;11.00;75.20
57566;DHT22;63999;43.882;-0.310;2023-04-02T07:09:24;11.00;75.10
57566;DHT22;63999;43.882;-0.310;2023-04-02T07:11:50;11.00;75.70
57566;DHT22;63999;43.882;-0.310;2023-04-02T07:14:16;11.00;76.00
57566;DHT22;63999;43.882;-0.310;2023-04-02T07:16:43;11.00;75.30
57566;DHT22;63999;43.882;-0.310;2023-04-02T07:19:18;10.80;75.80
57566;DHT22;63999;43.882;-0.310;2023-04-02T07:21:44;10.90;76.10
57566;DHT22;63999;43.882;-0.310;2023-04-02T07:24:10;11.00;76.00
57566;DHT22;63999;43.882;-0.310;2023-04-02T07:26:37;11.00;75.90
57566;DHT22;63999;43.882;-0.310;2023-04-02T07:29:06;11.00;75.80
57566;DHT22;63999;43.882;-0.310;2023-04-02T07:31:32;11.00;75.60
57566;DHT22;63999;43.882;-0.310;2023-04-02T07:33:59;10.90;75.60
57566;DHT22;63999;43.882;-0.310;2023-04-02T07:36:27;10.80;75.90
57566;DHT22;63999;43.882;-0.310;2023-04-02T07:38:53;11.10;76.50
57566;DHT22;63999;43.882;-0.310;2023-04-02T07:41:19;11.10;75.80
57566;DHT22;63999;43.882;-0.310;2023-04-02T07:43:45;11.00;75.60
57566;DHT22;63999;43.882;-0.310;2023-04-02T07:46:11;11.00;76.10
57566;DHT22;63999;43.882;-0.310;2023-04-02T07:48:39;11.10;76.50
57566;DHT22;63999;43.882;-0.310;2023-04-02T07:51:17;11.20;75.70
57566;DHT22;63999;43.882;-0.310;2023-04-02T07:53:44;11.30;76.20
57566;DHT22;63999;43.882;-0.310;2023-04-02T07:56:16;11.20;76.40
57566;DHT22;63999;43.882;-0.310;2023-04-02T07:58:43;11.30;77.10
57566;DHT22;63999;43.882;-0.310;2023-04-02T08:01:18;11.30;76.40
57566;DHT22;63999;43.882;-0.310;2023-04-02T08:03:44;11.30;76.40
57566;DHT22;63999;43.882;-0.310;2023-04-02T08:06:10;11.40;76.40
57566;DHT22;63999;43.882;-0.310;2023-04-02T08:08:37;11.40;76.20
57566;DHT22;63999;43.882;-0.310;2023-04-02T08:11:03;11.50;76.40
57566;DHT22;63999;43.882;-0.310;2023-04-02T08:13:29;11.40;76.20
57566;DHT22;63999;43.882;-0.310;2023-04-02T08:16:00;11.40;77.20
57566;DHT22;63999;43.882;-0.310;2023-04-02T08:18:27;11.40;76.50
57566;DHT22;63999;43.882;-0.310;2023-04-02T08:20:54;11.30;76.90
57566;DHT22;63999;43.882;-0.310;2023-04-02T08:23:20;11.30;76.60
57566;DHT22;63999;43.882;-0.310;2023-04-02T08:25:47;11.30;76.80
57566;DHT22;63999;43.882;-0.310;2023-04-02T08:28:13;11.10;76.90
57566;DHT22;63999;43.882;-0.310;2023-04-02T08:30:39;11.10;77.30
57566;DHT22;63999;43.882;-0.310;2023-04-02T08:33:05;11.10;77.80
57566;DHT22;63999;43.882;-0.310;2023-04-02T08:35:31;11.10;77.70
57566;DHT22;63999;43.882;-0.310;2023-04-02T08:37:58;11.30;77.20
57566;DHT22;63999;43.882;-0.310;2023-04-02T08:40:43;11.30;77.40
57566;DHT22;63999;43.882;-0.310;2023-04-02T08:48:30;11.40;77.10
57566;DHT22;63999;43.882;-0.310;2023-04-02T08:50:57;11.40;77.90
57566;DHT22;63999;43.882;-0.310;2023-04-02T08:53:30;11.40;77.00
57566;DHT22;63999;43.882;-0.310;2023-04-02T08:58:45;11.50;77.00
57566;DHT22;63999;43.882;-0.310;2023-04-02T09:03:46;11.50;77.20
57566;DHT22;63999;43.882;-0.310;2023-04-02T09:06:17;11.50;76.90
57566;DHT22;63999;43.882;-0.310;2023-04-02T09:08:45;11.40;77.90
57566;DHT22;63999;43.882;-0.310;2023-04-02T09:11:21;11.40;77.70
57566;DHT22;63999;43.882;-0.310;2023-04-02T09:13:57;11.40;77.70
57566;DHT22;63999;43.882;-0.310;2023-04-02T09:16:41;11.40;78.00
57566;DHT22;63999;43.882;-0.310;2023-04-02T09:19:24;11.40;78.10
57566;DHT22;63999;43.882;-0.310;2023-04-02T09:22:06;11.50;78.10
57566;DHT22;63999;43.882;-0.310;2023-04-02T09:24:33;11.50;77.70
57566;DHT22;63999;43.882;-0.310;2023-04-02T09:27:00;11.50;78.10
57566;DHT22;63999;43.882;-0.310;2023-04-02T09:29:50;11.50;77.80
57566;DHT22;63999;43.882;-0.310;2023-04-02T09:32:34;11.50;78.20
57566;DHT22;63999;43.882;-0.310;2023-04-02T09:35:17;11.50;77.90
57566;DHT22;63999;43.882;-0.310;2023-04-02T09:37:44;11.60;77.90
57566;DHT22;63999;43.882;-0.310;2023-04-02T09:40:24;11.60;78.00
57566;DHT22;63999;43.882;-0.310;2023-04-02T09:43:12;11.60;77.80
57566;DHT22;63999;43.882;-0.310;2023-04-02T09:45:40;11.70;77.60
57566;DHT22;63999;43.882;-0.310;2023-04-02T09:48:34;11.70;77.50
57566;DHT22;63999;43.882;-0.310;2023-04-02T09:51:15;11.60;78.00
57566;DHT22;63999;43.882;-0.310;2023-04-02T09:53:43;11.50;79.00
57566;DHT22;63999;43.882;-0.310;2023-04-02T09:56:21;11.60;77.60
57566;DHT22;63999;43.882;-0.310;2023-04-02T09:59:18;11.70;77.80
57566;DHT22;63999;43.882;-0.310;2023-04-02T10:04:38;11.70;78.30
57566;DHT22;63999;43.882;-0.310;2023-04-02T10:07:32;11.70;78.00
57566;DHT22;63999;43.882;-0.310;2023-04-02T10:12:42;11.60;78.30
57566;DHT22;63999;43.882;-0.310;2023-04-02T10:15:24;11.60;78.00
57566;DHT22;63999;43.882;-0.310;2023-04-02T10:18:10;11.60;78.90
57566;DHT22;63999;43.882;-0.310;2023-04-02T10:20:38;11.70;79.20
57566;DHT22;63999;43.882;-0.310;2023-04-02T10:23:15;11.70;78.10
57566;DHT22;63999;43.882;-0.310;2023-04-02T10:25:52;11.90;77.60
57566;DHT22;63999;43.882;-0.310;2023-04-02T10:33:37;11.70;77.50
57566;DHT22;63999;43.882;-0.310;2023-04-02T10:39:19;11.80;77.80
57566;DHT22;63999;43.882;-0.310;2023-04-02T10:53:13;11.90;77.30
57566;DHT22;63999;43.882;-0.310;2023-04-02T10:55:43;11.90;77.00
57566;DHT22;63999;43.882;-0.310;2023-04-02T11:00:49;12.00;77.00
57566;DHT22;63999;43.882;-0.310;2023-04-02T11:06:05;12.00;77.90
57566;DHT22;63999;43.882;-0.310;2023-04-02T11:08:45;12.00;76.80
57566;DHT22;63999;43.882;-0.310;2023-04-02T11:11:19;12.10;76.20
57566;DHT22;63999;43.882;-0.310;2023-04-02T11:13:59;12.20;75.90
57566;DHT22;63999;43.882;-0.310;2023-04-02T11:16:26;12.10;76.20
57566;DHT22;63999;43.882;-0.310;2023-04-02T11:19:23;12.10;76.50
57566;DHT22;63999;43.882;-0.310;2023-04-02T11:29:51;12.10;76.50
57566;DHT22;63999;43.882;-0.310;2023-04-02T11:37:39;12.00;76.50
57566;DHT22;63999;43.882;-0.310;2023-04-02T11:42:37;12.20;76.00
57566;DHT22;63999;43.882;-0.310;2023-04-02T11:50:36;12.20;76.50
57566;DHT22;63999;43.882;-0.310;2023-04-02T11:53:28;12.20;76.20
57566;DHT22;63999;43.882;-0.310;2023-04-02T12:01:25;12.10;75.90
57566;DHT22;63999;43.882;-0.310;2023-04-02T12:09:23;12.20;77.50
57566;DHT22;63999;43.882;-0.310;2023-04-02T12:11:51;12.30;79.00
57566;DHT22;63999;43.882;-0.310;2023-04-02T12:19:48;12.50;79.00
57566;DHT22;63999;43.882;-0.310;2023-04-02T12:22:31;12.50;77.20
57566;DHT22;63999;43.882;-0.310;2023-04-02T12:25:04;12.40;77.90
57566;DHT22;63999;43.882;-0.310;2023-04-02T12:27:30;12.40;77.20
57566;DHT22;63999;43.882;-0.310;2023-04-02T12:30:21;12.40;77.50
57566;DHT22;63999;43.882;-0.310;2023-04-02T12:32:48;12.50;77.50
57566;DHT22;63999;43.882;-0.310;2023-04-02T12:35:32;12.50;76.40
57566;DHT22;63999;43.882;-0.310;2023-04-02T12:37:58;12.40;77.60
57566;DHT22;63999;43.882;-0.310;2023-04-02T12:40:26;12.50;78.20
57566;DHT22;63999;43.882;-0.310;2023-04-02T12:42:52;12.50;78.20
57566;DHT22;63999;43.882;-0.310;2023-04-02T12:45:27;12.50;77.20
57566;DHT22;63999;43.882;-0.310;2023-04-02T12:47:53;12.50;78.30
57566;DHT22;63999;43.882;-0.310;2023-04-02T12:50:20;12.50;77.20
57566;DHT22;63999;43.882;-0.310;2023-04-02T12:52:49;12.50;76.30
57566;DHT22;63999;43.882;-0.310;2023-04-02T12:55:19;12.50;76.70
57566;DHT22;63999;43.882;-0.310;2023-04-02T12:57:45;12.50;76.40
57566;DHT22;63999;43.882;-0.310;2023-04-02T13:02:51;12.50;78.40
57566;DHT22;63999;43.882;-0.310;2023-04-02T13:05:38;12.50;76.80
57566;DHT22;63999;43.882;-0.310;2023-04-02T13:08:28;12.50;77.50
57566;DHT22;63999;43.882;-0.310;2023-04-02T13:10:59;12.50;76.90
57566;DHT22;63999;43.882;-0.310;2023-04-02T13:13:33;12.50;77.90
57566;DHT22;63999;43.882;-0.310;2023-04-02T13:18:32;12.50;78.40
57566;DHT22;63999;43.882;-0.310;2023-04-02T13:26:08;12.50;76.90
57566;DHT22;63999;43.882;-0.310;2023-04-02T13:28:36;12.50;78.90
57566;DHT22;63999;43.882;-0.310;2023-04-02T13:31:03;12.70;78.80
57566;DHT22;63999;43.882;-0.310;2023-04-02T13:33:28;12.70;79.30
57566;DHT22;63999;43.882;-0.310;2023-04-02T13:35:54;12.70;77.50
57566;DHT22;63999;43.882;-0.310;2023-04-02T13:38:20;12.60;77.20
57566;DHT22;63999;43.882;-0.310;2023-04-02T13:40:46;12.60;77.80
57566;DHT22;63999;43.882;-0.310;2023-04-02T13:43:18;12.60;76.60
57566;DHT22;63999;43.882;-0.310;2023-04-02T13:45:50;12.70;78.30
57566;DHT22;63999;43.882;-0.310;2023-04-02T13:48:16;12.60;76.80
57566;DHT22;63999;43.882;-0.310;2023-04-02T13:50:43;12.50;78.10
57566;DHT22;63999;43.882;-0.310;2023-04-02T13:53:27;12.60;78.00
57566;DHT22;63999;43.882;-0.310;2023-04-02T13:55:55;12.70;77.10
57566;DHT22;63999;43.882;-0.310;2023-04-02T13:58:21;12.80;77.00
57566;DHT22;63999;43.882;-0.310;2023-04-02T14:00:48;12.80;77.30
57566;DHT22;63999;43.882;-0.310;2023-04-02T14:03:18;12.80;77.30
57566;DHT22;63999;43.882;-0.310;2023-04-02T14:06:01;12.80;77.90
57566;DHT22;63999;43.882;-0.310;2023-04-02T14:08:53;12.90;77.60
57566;DHT22;63999;43.882;-0.310;2023-04-02T14:17:12;12.80;76.50
57566;DHT22;63999;43.882;-0.310;2023-04-02T14:22:50;12.80;76.80
57566;DHT22;63999;43.882;-0.310;2023-04-02T14:33:48;12.80;76.10
57566;DHT22;63999;43.882;-0.310;2023-04-02T14:39:07;13.00;76.10
57566;DHT22;63999;43.882;-0.310;2023-04-02T14:41:46;13.00;76.50
57566;DHT22;63999;43.882;-0.310;2023-04-02T14:44:14;12.90;75.60
57566;DHT22;63999;43.882;-0.310;2023-04-02T14:46:43;12.90;75.40
57566;DHT22;63999;43.882;-0.310;2023-04-02T14:49:27;12.90;75.40
57566;DHT22;63999;43.882;-0.310;2023-04-02T14:52:12;12.90;75.20
57566;DHT22;63999;43.882;-0.310;2023-04-02T14:54:58;12.90;75.00
57566;DHT22;63999;43.882;-0.310;2023-04-02T14:57:37;12.90;75.10
57566;DHT22;63999;43.882;-0.310;2023-04-02T15:02:56;12.90;74.70
57566;DHT22;63999;43.882;-0.310;2023-04-02T15:05:45;12.90;74.90
57566;DHT22;63999;43.882;-0.310;2023-04-02T15:11:19;12.90;74.80
57566;DHT22;63999;43.882;-0.310;2023-04-02T15:16:26;12.80;74.80
57566;DHT22;63999;43.882;-0.310;2023-04-02T15:18:54;12.80;75.30
57566;DHT22;63999;43.882;-0.310;2023-04-02T15:21:48;12.90;75.10
57566;DHT22;63999;43.882;-0.310;2023-04-02T15:24:30;12.90;75.70
57566;DHT22;63999;43.882;-0.310;2023-04-02T15:30:11;12.90;74.90
57566;DHT22;63999;43.882;-0.310;2023-04-02T15:32:40;12.90;75.20
57566;DHT22;63999;43.882;-0.310;2023-04-02T15:43:43;12.90;75.40
57566;DHT22;63999;43.882;-0.310;2023-04-02T15:46:15;12.90;74.70
57566;DHT22;63999;43.882;-0.310;2023-04-02T15:48:56;12.90;74.80
57566;DHT22;63999;43.882;-0.310;2023-04-02T15:51:34;12.90;74.70
57566;DHT22;63999;43.882;-0.310;2023-04-02T15:56:50;12.90;74.80
57566;DHT22;63999;43.882;-0.310;2023-04-02T15:59:33;12.90;74.90
57566;DHT22;63999;43.882;-0.310;2023-04-02T16:07:27;13.00;75.80
57566;DHT22;63999;43.882;-0.310;2023-04-02T16:12:49;13.00;75.70
57566;DHT22;63999;43.882;-0.310;2023-04-02T16:15:33;13.00;76.20
57566;DHT22;63999;43.882;-0.310;2023-04-02T16:18:04;13.10;75.80
57566;DHT22;63999;43.882;-0.310;2023-04-02T16:20:35;13.10;75.50
57566;DHT22;63999;43.882;-0.310;2023-04-02T16:23:11;13.10;74.80
57566;DHT22;63999;43.882;-0.310;2023-04-02T16:26:01;13.00;74.80
57566;DHT22;63999;43.882;-0.310;2023-04-02T16:29:01;13.00;75.70
57566;DHT22;63999;43.882;-0.310;2023-04-02T17:05:14;13.00;74.60
57566;DHT22;63999;43.882;-0.310;2023-04-02T17:07:50;13.10;74.40
57566;DHT22;63999;43.882;-0.310;2023-04-02T17:13:16;13.10;74.80
57566;DHT22;63999;43.882;-0.310;2023-04-02T17:15:49;13.10;74.30
57566;DHT22;63999;43.882;-0.310;2023-04-02T17:18:20;13.10;74.40
57566;DHT22;63999;43.882;-0.310;2023-04-02T17:20:49;13.10;74.60
57566;DHT22;63999;43.882;-0.310;2023-04-02T17:23:17;13.00;75.00
57566;DHT22;63999;43.882;-0.310;2023-04-02T17:25:54;13.00;74.30
57566;DHT22;63999;43.882;-0.310;2023-04-02T17:28:25;13.10;74.60
57566;DHT22;63999;43.882;-0.310;2023-04-02T17:30:57;13.00;74.30
57566;DHT22;63999;43.882;-0.310;2023-04-02T17:33:24;13.00;74.20
57566;DHT22;63999;43.882;-0.310;2023-04-02T17:41:39;13.00;74.50
57566;DHT22;63999;43.882;-0.310;2023-04-02T18:00:56;13.00;73.90
57566;DHT22;63999;43.882;-0.310;2023-04-02T18:03:49;13.00;73.80
57566;DHT22;63999;43.882;-0.310;2023-04-02T18:09:29;12.90;74.10
57566;DHT22;63999;43.882;-0.310;2023-04-02T18:17:34;12.90;73.90
57566;DHT22;63999;43.882;-0.310;2023-04-02T18:28:53;12.90;73.30
57566;DHT22;63999;43.882;-0.310;2023-04-02T18:31:11;12.90;73.60
57566;DHT22;63999;43.882;-0.310;2023-04-02T18:50:41;12.80;73.50
57566;DHT22;63999;43.882;-0.310;2023-04-02T18:53:18;12.80;73.70
57566;DHT22;63999;43.882;-0.310;2023-04-02T18:56:15;12.80;73.60
57566;DHT22;63999;43.882;-0.310;2023-04-02T19:01:39;12.70;73.50
57566;DHT22;63999;43.882;-0.310;2023-04-02T19:04:14;12.70;73.60
57566;DHT22;63999;43.882;-0.310;2023-04-02T19:06:44;12.60;73.40
57566;DHT22;63999;43.882;-0.310;2023-04-02T19:09:17;12.50;73.40
57566;DHT22;63999;43.882;-0.310;2023-04-02T19:11:46;12.50;73.60
57566;DHT22;63999;43.882;-0.310;2023-04-02T19:14:16;12.50;73.70
57566;DHT22;63999;43.882;-0.310;2023-04-02T19:31:17;12.50;73.70
57566;DHT22;63999;43.882;-0.310;2023-04-02T19:34:19;12.50;73.70
57566;DHT22;63999;43.882;-0.310;2023-04-02T19:36:53;12.50;73.90
57566;DHT22;63999;43.882;-0.310;2023-04-02T19:44:33;12.50;73.70
57566;DHT22;63999;43.882;-0.310;2023-04-02T19:47:00;12.50;73.80
57566;DHT22;63999;43.882;-0.310;2023-04-02T19:49:28;12.50;73.80
57566;DHT22;63999;43.882;-0.310;2023-04-02T19:51:54;12.50;73.40
57566;DHT22;63999;43.882;-0.310;2023-04-02T19:54:21;12.50;73.80
57566;DHT22;63999;43.882;-0.310;2023-04-02T19:56:47;12.40;73.90
57566;DHT22;63999;43.882;-0.310;2023-04-02T19:59:13;12.50;74.20
57566;DHT22;63999;43.882;-0.310;2023-04-02T20:01:40;12.50;74.00
57566;DHT22;63999;43.882;-0.310;2023-04-02T20:04:06;12.50;73.80
57566;DHT22;63999;43.882;-0.310;2023-04-02T20:06:32;12.40;73.60
57566;DHT22;63999;43.882;-0.310;2023-04-02T20:08:58;12.40;74.10
57566;DHT22;63999;43.882;-0.310;2023-04-02T20:11:25;12.50;73.90
57566;DHT22;63999;43.882;-0.310;2023-04-02T20:13:52;12.40;73.50
57566;DHT22;63999;43.882;-0.310;2023-04-02T20:16:19;12.30;73.60
57566;DHT22;63999;43.882;-0.310;2023-04-02T20:18:46;12.20;73.50
57566;DHT22;63999;43.882;-0.310;2023-04-02T20:21:12;12.10;74.00
57566;DHT22;63999;43.882;-0.310;2023-04-02T20:23:38;12.20;73.60
57566;DHT22;63999;43.882;-0.310;2023-04-02T20:26:07;12.10;73.60
57566;DHT22;63999;43.882;-0.310;2023-04-02T20:28:34;12.00;73.80
57566;DHT22;63999;43.882;-0.310;2023-04-02T20:31:12;12.00;73.70
57566;DHT22;63999;43.882;-0.310;2023-04-02T20:33:40;12.00;74.10
57566;DHT22;63999;43.882;-0.310;2023-04-02T20:36:12;12.10;74.60
57566;DHT22;63999;43.882;-0.310;2023-04-02T20:38:41;12.30;74.60
57566;DHT22;63999;43.882;-0.310;2023-04-02T20:41:09;12.50;74.40
57566;DHT22;63999;43.882;-0.310;2023-04-02T20:43:36;12.50;74.40
57566;DHT22;63999;43.882;-0.310;2023-04-02T20:46:06;12.50;74.20
57566;DHT22;63999;43.882;-0.310;2023-04-02T20:48:34;12.50;74.20
57566;DHT22;63999;43.882;-0.310;2023-04-02T20:51:04;12.50;74.10
57566;DHT22;63999;43.882;-0.310;2023-04-02T20:53:33;12.50;74.20
57566;DHT22;63999;43.882;-0.310;2023-04-02T20:56:10;12.50;74.10
57566;DHT22;63999;43.882;-0.310;2023-04-02T20:58:38;12.50;74.20
57566;DHT22;63999;43.882;-0.310;2023-04-02T21:01:26;12.50;74.20
57566;DHT22;63999;43.882;-0.310;2023-04-02T21:04:01;12.50;74.10
57566;DHT22;63999;43.882;-0.310;2023-04-02T21:06:33;12.50;74.00
57566;DHT22;63999;43.882;-0.310;2023-04-02T21:09:01;12.50;74.10
57566;DHT22;63999;43.882;-0.310;2023-04-02T21:11:27;12.50;74.10
57566;DHT22;63999;43.882;-0.310;2023-04-02T21:13:54;12.50;74.20
57566;DHT22;63999;43.882;-0.310;2023-04-02T21:16:27;12.50;74.20
57566;DHT22;63999;43.882;-0.310;2023-04-02T21:18:55;12.50;74.10
57566;DHT22;63999;43.882;-0.310;2023-04-02T21:21:22;12.50;74.00
57566;DHT22;63999;43.882;-0.310;2023-04-02T21:23:57;12.50;74.30
57566;DHT22;63999;43.882;-0.310;2023-04-02T21:26:28;12.50;74.10
57566;DHT22;63999;43.882;-0.310;2023-04-02T21:28:54;12.50;74.20
57566;DHT22;63999;43.882;-0.310;2023-04-02T21:31:22;12.50;74.10
57566;DHT22;63999;43.882;-0.310;2023-04-02T21:33:53;12.50;74.20
57566;DHT22;63999;43.882;-0.310;2023-04-02T21:36:28;12.50;74.20
57566;DHT22;63999;43.882;-0.310;2023-04-02T21:39:06;12.50;74.20
57566;DHT22;63999;43.882;-0.310;2023-04-02T21:41:35;12.50;74.00
57566;DHT22;63999;43.882;-0.310;2023-04-02T21:44:02;12.40;74.70
57566;DHT22;63999;43.882;-0.310;2023-04-02T21:46:30;12.50;74.50